Time;durP1;ratioP1;P1;durP2;ratioP2;P2;SDS_P1;SDS_P2;PMS_P1;PMS_P2;Temp;Humidity;BMP_temperature;BMP_pressure;BME280_temperature;BME280_humidity;BME280_pressure;Samples;Min_cycle;Max_cycle;Signal;HPM_P1;HPM_P2
2021/07/24 00:01:55;;;;;;;14.30;11.98;;;;;;;18.91;59.92;95161.63;5104831;27;20254;-77
2021/07/24 00:04:21;;;;;;;13.88;11.77;;;;;;;19.01;59.23;95153.28;5119780;27;20297;-79
2021/07/24 00:06:46;;;;;;;14.68;12.15;;;;;;;18.94;59.37;95149.84;5102288;27;20178;-79
2021/07/24 00:09:13;;;;;;;14.93;11.73;;;;;;;18.98;59.50;95143.13;5101167;27;20254;-78
2021/07/24 00:11:38;;;;;;;13.75;11.55;;;;;;;19.00;59.03;95132.44;5107120;27;20207;-77
2021/07/24 00:14:03;;;;;;;16.38;11.15;;;;;;;19.01;59.04;95139.31;5099742;27;20199;-78
2021/07/24 00:16:29;;;;;;;11.85;10.60;;;;;;;19.03;59.10;95132.00;5127254;27;20195;-77
2021/07/24 00:18:54;;;;;;;14.10;11.75;;;;;;;18.94;59.29;95126.97;5117884;27;20260;-78
2021/07/24 00:21:19;;;;;;;14.05;12.00;;;;;;;18.92;59.32;95138.72;5126875;27;20234;-79
2021/07/24 00:23:45;;;;;;;13.98;12.35;;;;;;;18.91;59.54;95132.66;5102329;27;20290;-79
2021/07/24 00:26:14;;;;;;;13.00;11.27;;;;;;;18.93;59.55;95124.56;5119080;27;20800;-78
2021/07/24 00:28:40;;;;;;;15.00;11.77;;;;;;;18.89;59.46;95124.16;5118747;27;20275;-78
2021/07/24 00:31:06;;;;;;;15.88;12.32;;;;;;;18.74;60.17;95121.00;5120233;27;20179;-78
2021/07/24 00:33:31;;;;;;;15.75;11.88;;;;;;;18.77;59.74;95115.31;5107742;27;20665;-78
2021/07/24 00:35:56;;;;;;;13.90;12.43;;;;;;;18.83;59.69;95122.38;5101299;27;20317;-78
2021/07/24 00:38:22;;;;;;;15.15;11.23;;;;;;;18.89;59.27;95118.09;5118598;27;20175;-78
2021/07/24 00:40:55;;;;;;;13.57;11.32;;;;;;;18.90;59.70;95109.19;5116173;27;20187;-78
2021/07/24 00:43:25;;;;;;;15.88;11.15;;;;;;;18.82;59.48;95105.00;5121550;27;20170;-78
2021/07/24 00:45:53;;;;;;;15.27;11.98;;;;;;;18.88;59.06;95105.94;5101146;27;20177;-79
2021/07/24 00:48:20;;;;;;;13.50;10.85;;;;;;;18.91;58.96;95105.56;5136655;27;20524;-78
2021/07/24 00:50:47;;;;;;;13.50;11.63;;;;;;;18.90;58.67;95099.47;5117435;27;20175;-79
2021/07/24 00:53:20;;;;;;;13.30;11.25;;;;;;;18.92;58.52;95091.38;5126921;27;20206;-78
2021/07/24 00:55:45;;;;;;;14.25;10.48;;;;;;;18.89;58.38;95092.59;5119098;27;20211;-78
2021/07/24 00:58:31;;;;;;;13.93;11.38;;;;;;;18.91;58.61;95085.31;5136240;27;20187;-78
2021/07/24 01:00:57;;;;;;;14.38;11.32;;;;;;;18.93;58.35;95080.63;5117074;27;20173;-79
2021/07/24 01:03:22;;;;;;;13.88;11.90;;;;;;;18.93;57.84;95074.56;5125584;27;20210;-78
2021/07/24 01:05:58;;;;;;;14.57;10.90;;;;;;;18.93;58.12;95078.00;5122517;27;20232;-78
2021/07/24 01:08:24;;;;;;;13.23;11.30;;;;;;;18.90;58.10;95078.41;5136979;27;20185;-78
2021/07/24 01:10:52;;;;;;;13.18;11.40;;;;;;;18.87;58.67;95068.31;5118766;27;20175;-78
2021/07/24 01:13:18;;;;;;;14.05;11.07;;;;;;;18.77;58.51;95077.69;5102851;27;20273;-78
2021/07/24 01:15:50;;;;;;;15.02;11.82;;;;;;;18.85;58.78;95080.06;5105906;27;20191;-78
2021/07/24 01:18:16;;;;;;;13.50;10.65;;;;;;;18.90;58.22;95081.03;5101191;27;20221;-78
2021/07/24 01:20:42;;;;;;;16.65;11.73;;;;;;;18.81;58.89;95081.50;5117882;27;20179;-78
2021/07/24 01:23:12;;;;;;;13.88;11.07;;;;;;;18.80;58.93;95088.59;5100333;27;20655;-78
2021/07/24 01:25:46;;;;;;;15.15;11.65;;;;;;;18.78;58.76;95087.19;5126378;27;20187;-78
2021/07/24 01:28:12;;;;;;;13.45;11.55;;;;;;;18.77;59.10;95101.34;5118170;27;20178;-78
2021/07/24 01:30:38;;;;;;;12.02;10.13;;;;;;;18.77;58.54;95096.09;5118241;27;20622;-78
2021/07/24 01:33:03;;;;;;;12.80;11.10;;;;;;;18.83;58.64;95101.34;5114569;27;20209;-78
2021/07/24 01:35:29;;;;;;;13.88;12.07;;;;;;;18.76;59.22;95105.00;5127917;27;20258;-78
2021/07/24 01:37:54;;;;;;;14.38;11.35;;;;;;;18.88;58.33;95101.50;5138822;27;20171;-78
2021/07/24 01:40:19;;;;;;;13.88;11.90;;;;;;;18.88;58.38;95104.13;5099558;27;20175;-78
2021/07/24 01:42:44;;;;;;;14.27;11.02;;;;;;;18.89;58.15;95108.38;5117382;27;20179;-79
2021/07/24 01:45:10;;;;;;;14.82;11.40;;;;;;;18.90;58.02;95104.72;5097232;27;20219;-80
2021/07/24 01:47:36;;;;;;;15.85;11.68;;;;;;;18.90;58.16;95112.59;5105815;27;20178;-79
2021/07/24 01:52:46;;;;;;;14.82;11.10;;;;;;;18.86;57.81;95113.25;5119581;27;20232;-78
2021/07/24 01:55:13;;;;;;;15.63;11.13;;;;;;;18.89;57.90;95113.63;5116447;27;20221;-79
2021/07/24 01:57:42;;;;;;;13.15;11.80;;;;;;;18.94;58.03;95119.09;5103136;27;20626;-79
2021/07/24 02:00:09;;;;;;;15.35;11.85;;;;;;;18.94;57.87;95123.53;5117486;27;20179;-80
2021/07/24 02:02:35;;;;;;;18.50;11.77;;;;;;;18.96;58.10;95121.50;5137226;27;20184;-79
2021/07/24 02:05:02;;;;;;;17.45;11.68;;;;;;;19.05;57.50;95107.09;5135452;27;20186;-79
2021/07/24 02:07:29;;;;;;;14.48;11.13;;;;;;;19.06;57.58;95103.44;5139726;27;20265;-79
2021/07/24 02:09:54;;;;;;;13.10;10.32;;;;;;;19.10;57.01;95109.09;5121020;27;20187;-78
2021/07/24 02:12:19;;;;;;;13.35;11.70;;;;;;;19.14;57.04;95110.28;5124833;27;20630;-79
2021/07/24 02:14:45;;;;;;;14.55;11.05;;;;;;;19.09;57.03;95110.94;5125674;27;20674;-78
2021/07/24 02:17:10;;;;;;;15.23;11.25;;;;;;;19.10;57.18;95109.09;5106160;27;20222;-78
2021/07/24 02:19:36;;;;;;;16.85;11.88;;;;;;;19.10;57.38;95112.53;5145103;27;20685;-78
2021/07/24 02:22:01;;;;;;;14.40;10.70;;;;;;;19.17;56.99;95104.56;5122371;27;20179;-79
2021/07/24 02:24:26;;;;;;;15.23;10.65;;;;;;;19.22;56.88;95099.50;5116235;27;20195;-78
2021/07/24 02:26:52;;;;;;;16.60;10.88;;;;;;;19.26;56.69;95095.44;5114601;27;20213;-77
2021/07/24 02:29:17;;;;;;;13.43;10.60;;;;;;;19.25;56.15;95105.13;5124252;27;20171;-79
2021/07/24 02:31:43;;;;;;;13.70;11.05;;;;;;;19.27;56.57;95104.94;5099874;27;20181;-79
2021/07/24 02:34:08;;;;;;;16.83;11.38;;;;;;;19.32;56.17;95106.94;5116244;27;20669;-79
2021/07/24 02:36:33;;;;;;;14.05;10.52;;;;;;;19.30;55.78;95106.34;5116372;27;20206;-79
2021/07/24 02:38:59;;;;;;;13.30;10.15;;;;;;;19.37;55.53;95099.22;5099965;28;20194;-79
2021/07/24 02:41:24;;;;;;;15.30;10.82;;;;;;;19.39;55.05;95097.97;5124024;27;20171;-79
2021/07/24 02:43:50;;;;;;;13.55;10.98;;;;;;;19.40;55.28;95096.94;5099103;27;20191;-79
2021/07/24 02:46:19;;;;;;;16.02;12.05;;;;;;;19.43;54.93;95088.63;5099414;28;20697;-78
2021/07/24 02:48:45;;;;;;;14.75;11.27;;;;;;;19.43;55.17;95093.88;5115524;27;20202;-79
2021/07/24 02:51:10;;;;;;;13.13;10.23;;;;;;;19.43;54.95;95090.44;5117019;27;20175;-79
2021/07/24 02:53:36;;;;;;;13.95;11.13;;;;;;;19.42;54.82;95087.00;5115661;28;20233;-79
2021/07/24 02:56:01;;;;;;;14.23;10.57;;;;;;;19.48;54.59;95075.63;5116028;28;20242;-78
2021/07/24 02:58:26;;;;;;;17.60;11.48;;;;;;;19.45;54.65;95081.34;5114062;28;20178;-79
2021/07/24 03:00:52;;;;;;;14.77;11.23;;;;;;;19.43;54.62;95078.09;5126420;27;20667;-79
2021/07/24 03:03:17;;;;;;;13.43;10.82;;;;;;;19.46;54.62;95067.16;5117405;28;20183;-77
2021/07/24 03:05:43;;;;;;;14.25;10.75;;;;;;;19.41;54.44;95064.34;5124436;28;20167;-77
2021/07/24 03:08:08;;;;;;;12.68;10.63;;;;;;;19.42;54.97;95067.78;5098651;28;20182;-77
2021/07/24 03:10:33;;;;;;;12.77;10.68;;;;;;;19.42;55.24;95063.31;5098219;28;20681;-77
2021/07/24 03:12:58;;;;;;;12.93;11.07;;;;;;;19.38;55.45;95050.81;5112655;28;20192;-78
2021/07/24 03:15:24;;;;;;;11.60;10.40;;;;;;;19.37;54.94;95057.91;5106649;28;20214;-76
2021/07/24 03:17:49;;;;;;;13.00;11.38;;;;;;;19.33;55.13;95061.97;5098337;28;20293;-78
2021/07/24 03:20:14;;;;;;;13.15;10.90;;;;;;;19.32;55.35;95064.81;5115210;28;20170;-78
2021/07/24 03:22:40;;;;;;;12.60;10.77;;;;;;;19.36;55.01;95066.81;5097663;28;20174;-78
2021/07/24 03:25:06;;;;;;;12.52;11.23;;;;;;;19.45;54.69;95060.28;5113948;28;20286;-77
2021/07/24 03:27:31;;;;;;;10.65;9.60;;;;;;;19.44;54.75;95063.13;5139163;27;20186;-77
2021/07/24 03:29:56;;;;;;;11.70;10.32;;;;;;;19.46;54.12;95055.81;5115541;28;20595;-78
2021/07/24 03:32:22;;;;;;;12.57;10.40;;;;;;;19.42;54.56;95070.41;5097707;28;20175;-78
2021/07/24 03:34:47;;;;;;;12.27;10.75;;;;;;;19.45;54.39;95076.06;5114771;27;20249;-78
2021/07/24 03:37:12;;;;;;;11.90;10.38;;;;;;;19.45;54.32;95067.38;5105963;28;20199;-78
2021/07/24 03:39:37;;;;;;;13.43;11.48;;;;;;;19.49;54.30;95076.44;5115235;28;20713;-78
2021/07/24 03:42:03;;;;;;;13.35;10.25;;;;;;;19.52;54.71;95083.91;5133133;27;20187;-78
2021/07/24 03:44:29;;;;;;;12.27;10.73;;;;;;;19.44;54.38;95099.97;5114954;28;20697;-78
2021/07/24 03:46:54;;;;;;;11.73;10.43;;;;;;;19.43;54.31;95108.88;5103612;28;20236;-78
2021/07/24 03:49:19;;;;;;;13.40;11.38;;;;;;;19.43;54.95;95108.88;5097912;28;20175;-79
2021/07/24 03:51:45;;;;;;;16.65;11.32;;;;;;;19.41;54.59;95116.19;5133384;28;20220;-77
2021/07/24 03:54:10;;;;;;;12.13;10.40;;;;;;;19.43;54.58;95103.63;5133744;28;20186;-78
2021/07/24 03:56:35;;;;;;;13.00;10.65;;;;;;;19.40;54.75;95098.78;5113302;28;20251;-78
2021/07/24 03:59:01;;;;;;;14.38;10.93;;;;;;;19.44;54.48;95094.72;5123786;28;20176;-79
2021/07/24 04:01:27;;;;;;;15.60;10.50;;;;;;;19.48;54.10;95096.69;5098010;28;20236;-79
2021/07/24 04:03:52;;;;;;;13.77;10.15;;;;;;;19.53;54.13;95098.69;5135775;27;20608;-78
2021/07/24 04:06:25;;;;;;;11.85;10.23;;;;;;;19.56;53.98;95086.94;5135433;27;20187;-79
2021/07/24 04:08:50;;;;;;;13.90;10.73;;;;;;;19.52;54.20;95082.09;5123811;27;20194;-78
2021/07/24 04:11:19;;;;;;;15.40;10.68;;;;;;;19.55;53.99;95096.66;5098231;28;20172;-78
2021/07/24 04:13:44;;;;;;;11.43;10.18;;;;;;;19.77;53.67;95089.22;5116184;28;20252;-79
2021/07/24 04:16:09;;;;;;;11.13;9.93;;;;;;;19.69;53.26;95089.47;5081640;28;20257;-78
2021/07/24 04:18:35;;;;;;;13.45;10.98;;;;;;;19.63;53.71;95082.44;5104021;27;20246;-79
2021/07/24 04:21:01;;;;;;;13.63;10.27;;;;;;;19.62;54.07;95086.09;5121179;27;20178;-79
2021/07/24 04:23:26;;;;;;;12.80;11.30;;;;;;;19.52;54.02;95089.16;5119128;27;20171;-79
2021/07/24 04:25:52;;;;;;;12.68;11.25;;;;;;;19.48;54.22;95112.50;5118806;27;20175;-78
2021/07/24 04:28:18;;;;;;;15.27;10.80;;;;;;;19.55;54.24;95106.38;5116575;27;20178;-79
2021/07/24 04:30:43;;;;;;;12.15;10.80;;;;;;;19.47;54.67;95113.53;5109554;27;20224;-78
2021/07/24 04:33:08;;;;;;;12.52;10.50;;;;;;;19.46;54.39;95129.53;5118369;27;20224;-78
2021/07/24 04:35:33;;;;;;;14.15;10.73;;;;;;;19.57;53.44;95136.78;5101574;27;20281;-78
2021/07/24 04:37:59;;;;;;;12.73;10.93;;;;;;;19.59;53.45;95141.81;5100212;27;20171;-77
2021/07/24 04:40:24;;;;;;;13.77;9.93;;;;;;;19.63;53.77;95158.84;5140622;27;20179;-79
2021/07/24 04:42:49;;;;;;;12.80;10.45;;;;;;;19.75;52.58;95149.22;5136673;27;20175;-78
2021/07/24 04:45:15;;;;;;;13.43;10.60;;;;;;;19.74;53.13;95148.41;5101391;27;20301;-79
2021/07/24 04:47:41;;;;;;;11.63;9.88;;;;;;;19.73;53.31;95151.25;5118432;27;20224;-78
2021/07/24 04:50:06;;;;;;;12.70;10.43;;;;;;;19.72;53.18;95149.66;5116955;27;20278;-78
2021/07/24 04:52:33;;;;;;;11.50;9.88;;;;;;;19.72;53.86;95155.72;5124443;27;20175;-78
2021/07/24 04:54:59;;;;;;;15.82;10.90;;;;;;;19.73;53.56;95151.25;5101616;27;20207;-77
2021/07/24 04:57:24;;;;;;;13.90;10.32;;;;;;;19.73;53.73;95151.25;5118641;27;20191;-79
2021/07/24 04:59:51;;;;;;;12.48;10.10;;;;;;;19.71;54.12;95148.03;5098619;28;20188;-79
2021/07/24 05:02:18;;;;;;;11.80;9.98;;;;;;;19.72;54.45;95145.19;5101180;27;20281;-79
2021/07/24 05:04:45;;;;;;;13.40;11.13;;;;;;;19.73;54.63;95144.16;5135452;27;20191;-79
2021/07/24 05:07:11;;;;;;;12.60;10.40;;;;;;;19.84;54.11;95150.56;5121660;27;20166;-79
2021/07/24 05:09:37;;;;;;;12.07;10.65;;;;;;;19.95;54.34;95149.06;5134170;27;20251;-78
2021/07/24 05:12:02;;;;;;;12.60;10.45;;;;;;;20.03;54.57;95152.22;5130093;27;20179;-78
2021/07/24 05:14:27;;;;;;;11.55;10.23;;;;;;;20.17;54.17;95154.75;5138529;27;20617;-78
2021/07/24 05:16:52;;;;;;;13.52;11.27;;;;;;;20.21;54.43;95161.19;5138722;27;20255;-78
2021/07/24 05:19:18;;;;;;;14.20;11.23;;;;;;;20.35;54.25;95170.63;5137664;27;20178;-78
2021/07/24 05:21:43;;;;;;;13.25;10.80;;;;;;;20.51;53.77;95164.81;5124150;27;20175;-79
2021/07/24 05:24:08;;;;;;;13.57;11.40;;;;;;;20.62;53.92;95172.00;5101990;27;20738;-78
2021/07/24 05:26:34;;;;;;;14.52;10.77;;;;;;;20.68;54.24;95165.06;5100694;27;20179;-79
2021/07/24 05:28:59;;;;;;;12.65;11.10;;;;;;;20.76;54.43;95164.75;5117495;27;20211;-79
2021/07/24 05:31:25;;;;;;;12.38;11.00;;;;;;;20.88;54.76;95162.19;5099995;28;20195;-78
2021/07/24 05:33:50;;;;;;;13.77;10.55;;;;;;;20.97;55.73;95179.34;5121947;27;20226;-79
2021/07/24 05:36:15;;;;;;;13.13;11.18;;;;;;;21.12;55.21;95198.25;5117828;27;20195;-78
2021/07/24 05:38:41;;;;;;;12.75;11.23;;;;;;;21.25;54.28;95205.19;5118311;27;20179;-78
2021/07/24 05:41:06;;;;;;;15.80;11.07;;;;;;;21.37;53.76;95199.97;5133900;27;20179;-78
2021/07/24 05:43:31;;;;;;;15.60;11.00;;;;;;;21.38;53.89;95191.88;5120295;27;20175;-79
2021/07/24 05:45:59;;;;;;;15.18;10.85;;;;;;;21.44;53.79;95195.44;5120584;27;20186;-80
2021/07/24 05:48:24;;;;;;;12.60;10.55;;;;;;;21.12;54.45;95198.25;5119932;27;20549;-80
2021/07/24 05:50:50;;;;;;;14.25;11.00;;;;;;;20.98;55.05;95201.25;5102466;27;20186;-79
2021/07/24 05:53:15;;;;;;;12.80;9.93;;;;;;;20.90;55.45;95213.72;5097231;27;20171;-79
2021/07/24 05:55:40;;;;;;;13.63;10.93;;;;;;;20.55;56.18;95212.66;5116693;27;20203;-79
2021/07/24 05:58:09;;;;;;;11.23;10.00;;;;;;;20.49;56.33;95227.50;5136111;27;20645;-79
2021/07/24 06:00:34;;;;;;;12.77;10.25;;;;;;;20.26;57.18;95237.84;5118687;27;20179;-79
2021/07/24 06:02:59;;;;;;;15.45;11.38;;;;;;;20.18;57.95;95222.28;5117595;27;20209;-79
2021/07/24 06:05:25;;;;;;;16.20;11.77;;;;;;;19.98;60.57;95223.25;5137434;27;20843;-79
2021/07/24 06:07:50;;;;;;;16.90;11.73;;;;;;;19.89;62.20;95229.78;5119286;27;20559;-79
2021/07/24 06:10:15;;;;;;;13.38;11.80;;;;;;;19.69;64.26;95260.69;5138317;27;20175;-79
2021/07/24 06:12:40;;;;;;;18.00;11.85;;;;;;;19.51;64.95;95288.50;5101114;27;20181;-78
2021/07/24 06:15:06;;;;;;;14.27;12.52;;;;;;;19.04;66.98;95278.34;5118765;27;20205;-78
2021/07/24 06:17:32;;;;;;;16.88;13.13;;;;;;;18.87;69.22;95283.22;5118497;27;20737;-79
2021/07/24 06:19:57;;;;;;;15.93;12.85;;;;;;;18.92;69.08;95271.09;5138263;27;20171;-79
2021/07/24 06:22:23;;;;;;;15.30;12.55;;;;;;;19.08;68.24;95276.91;5136485;27;20171;-79
2021/07/24 06:24:48;;;;;;;16.35;12.10;;;;;;;19.21;68.09;95275.06;5137173;27;20214;-79
2021/07/24 06:27:13;;;;;;;14.32;11.90;;;;;;;19.37;67.65;95276.44;5137698;27;20174;-79
2021/07/24 06:29:39;;;;;;;13.18;11.70;;;;;;;19.48;67.56;95278.41;5118879;27;20269;-77
2021/07/24 06:32:05;;;;;;;15.00;12.68;;;;;;;19.72;66.89;95268.19;5101013;27;20650;-78
2021/07/24 06:34:31;;;;;;;16.63;11.90;;;;;;;19.98;65.59;95249.59;5117836;27;20328;-78
2021/07/24 06:36:57;;;;;;;13.95;12.50;;;;;;;20.12;67.68;95246.84;5110911;27;20191;-79
2021/07/24 06:39:22;;;;;;;16.48;12.07;;;;;;;20.14;67.59;95226.34;5118650;27;20193;-79
2021/07/24 06:41:47;;;;;;;13.95;12.48;;;;;;;20.08;68.27;95220.94;5118332;27;20228;-78
2021/07/24 06:44:13;;;;;;;14.82;11.40;;;;;;;19.99;67.82;95195.84;5100709;27;20191;-78
2021/07/24 06:46:38;;;;;;;15.05;12.35;;;;;;;20.02;66.95;95187.50;5119365;27;20206;-78
2021/07/24 06:49:03;;;;;;;13.57;12.02;;;;;;;20.11;66.16;95209.13;5102154;27;20183;-79
2021/07/24 06:51:29;;;;;;;13.85;12.32;;;;;;;20.05;67.12;95191.53;5117357;28;20182;-78
2021/07/24 06:53:54;;;;;;;16.60;12.25;;;;;;;20.22;65.79;95170.72;5116985;27;20199;-80
2021/07/24 06:56:19;;;;;;;13.18;11.70;;;;;;;20.43;64.49;95167.72;5113893;28;20209;-78
2021/07/24 06:58:45;;;;;;;15.45;12.70;;;;;;;20.64;64.59;95180.50;5132677;28;20224;-78
2021/07/24 07:01:10;;;;;;;22.95;14.43;;;;;;;20.75;65.26;95183.44;5115256;28;20179;-77
2021/07/24 07:03:35;;;;;;;21.92;12.80;;;;;;;20.92;64.57;95176.53;5114317;28;20228;-78
2021/07/24 07:06:07;;;;;;;17.77;12.57;;;;;;;21.08;64.31;95183.06;5131856;27;20167;-79
2021/07/24 07:08:33;;;;;;;15.93;12.38;;;;;;;21.11;64.52;95185.25;5119478;28;20653;-79
2021/07/24 07:11:05;;;;;;;15.55;12.50;;;;;;;20.99;65.82;95193.09;5133158;28;20754;-78
2021/07/24 07:13:31;;;;;;;14.95;12.15;;;;;;;21.26;66.31;95193.59;5132086;28;20171;-78
2021/07/24 07:15:56;;;;;;;16.50;12.38;;;;;;;21.08;67.56;95199.69;5118287;27;20198;-79
2021/07/24 07:18:22;;;;;;;15.53;12.30;;;;;;;21.01;68.34;95200.81;5122429;27;20440;-78
2021/07/24 07:20:47;;;;;;;13.82;12.25;;;;;;;21.07;67.46;95200.72;5120425;28;20183;-79
2021/07/24 07:23:13;;;;;;;13.75;11.20;;;;;;;20.83;68.83;95194.50;5114602;28;20171;-78
2021/07/24 07:25:38;;;;;;;13.50;11.93;;;;;;;20.86;68.76;95193.28;5132812;28;20187;-78
2021/07/24 07:28:04;;;;;;;13.63;12.23;;;;;;;20.67;69.48;95200.34;5114134;27;20189;-78
2021/07/24 07:30:29;;;;;;;13.73;12.32;;;;;;;20.68;69.63;95201.97;5134710;28;20202;-80
2021/07/24 07:32:54;;;;;;;15.50;13.13;;;;;;;20.73;69.41;95215.31;5115278;28;20174;-80
2021/07/24 07:35:19;;;;;;;13.82;12.30;;;;;;;20.69;69.69;95221.25;5114663;28;20202;-79
2021/07/24 07:37:50;;;;;;;14.90;13.35;;;;;;;20.64;69.69;95229.81;5115338;27;20167;-80
2021/07/24 07:40:16;;;;;;;16.95;12.95;;;;;;;20.55;70.55;95224.00;5139677;27;20224;-79
2021/07/24 07:42:41;;;;;;;14.07;12.60;;;;;;;20.47;70.67;95232.19;5124384;27;20171;-80
2021/07/24 07:45:07;;;;;;;13.75;12.23;;;;;;;20.55;70.27;95237.19;5102010;27;20207;-79
2021/07/24 07:47:32;;;;;;;13.63;12.10;;;;;;;20.58;69.35;95228.03;5119678;27;20565;-79
2021/07/24 07:49:57;;;;;;;14.35;12.77;;;;;;;20.37;70.03;95216.84;5099247;27;20196;-79
2021/07/24 07:52:24;;;;;;;13.68;12.02;;;;;;;20.14;70.17;95216.63;5126855;27;20175;-78
2021/07/24 07:54:49;;;;;;;14.68;12.32;;;;;;;20.10;69.59;95218.06;5138606;27;20187;-79
2021/07/24 07:57:14;;;;;;;15.23;13.05;;;;;;;19.89;70.48;95202.63;5102885;27;20585;-80
2021/07/24 07:59:39;;;;;;;14.27;12.82;;;;;;;19.87;70.63;95199.38;5115981;27;20555;-79
2021/07/24 08:02:05;;;;;;;14.82;13.25;;;;;;;19.87;70.73;95181.75;5119718;27;20199;-79
2021/07/24 08:04:30;;;;;;;13.90;12.10;;;;;;;19.89;69.99;95147.31;5135636;27;20267;-80
2021/07/24 08:06:55;;;;;;;14.95;13.10;;;;;;;19.88;70.75;95138.59;5101461;27;20205;-79
2021/07/24 08:09:21;;;;;;;16.52;12.88;;;;;;;19.92;70.81;95131.03;5137082;27;20554;-80
2021/07/24 08:11:47;;;;;;;14.98;13.18;;;;;;;20.07;69.21;95113.88;5116777;27;20175;-80
2021/07/24 08:14:13;;;;;;;16.42;13.05;;;;;;;20.11;69.17;95121.34;5110133;27;20696;-77
2021/07/24 08:16:38;;;;;;;18.00;13.20;;;;;;;20.15;69.84;95127.81;5136074;27;20289;-77
2021/07/24 08:19:03;;;;;;;15.85;13.63;;;;;;;20.23;68.95;95103.78;5118186;27;20622;-77
2021/07/24 08:21:28;;;;;;;16.58;14.15;;;;;;;20.20;70.08;95112.94;5115438;27;20907;-76
2021/07/24 08:23:54;;;;;;;16.73;13.38;;;;;;;20.27;70.85;95120.78;5115854;27;20680;-76
2021/07/24 08:26:19;;;;;;;16.58;13.48;;;;;;;20.25;70.29;95149.22;5135117;27;20179;-79
2021/07/24 08:28:44;;;;;;;16.55;13.90;;;;;;;20.33;69.85;95139.19;5117904;27;20210;-77
2021/07/24 08:31:14;;;;;;;15.45;13.07;;;;;;;20.98;67.69;95127.34;5136557;27;20550;-77
2021/07/24 08:33:39;;;;;;;15.63;13.60;;;;;;;21.24;66.88;95126.19;5135106;27;20199;-78
2021/07/24 08:36:04;;;;;;;17.45;13.48;;;;;;;21.48;64.83;95127.94;5101570;27;20195;-78
2021/07/24 08:38:30;;;;;;;13.80;12.38;;;;;;;21.78;64.66;95126.03;5114302;27;20205;-77
2021/07/24 08:40:55;;;;;;;15.90;12.63;;;;;;;21.92;64.04;95125.84;5116921;27;20634;-77
2021/07/24 08:43:21;;;;;;;15.52;12.52;;;;;;;22.37;61.86;95133.25;5129877;27;20183;-76
2021/07/24 08:45:46;;;;;;;20.35;13.30;;;;;;;22.82;61.67;95128.13;5114599;27;20174;-75
2021/07/24 08:48:11;;;;;;;14.70;12.73;;;;;;;23.05;62.46;95129.91;5132861;27;20181;-76
2021/07/24 08:50:40;;;;;;;14.00;12.25;;;;;;;23.66;60.77;95139.00;5115650;27;20586;-76
2021/07/24 08:53:07;;;;;;;14.20;11.93;;;;;;;23.95;58.32;95135.28;5097363;27;20549;-76
2021/07/24 08:55:34;;;;;;;16.35;13.18;;;;;;;23.79;58.01;95141.38;5107538;27;20299;-78
2021/07/24 08:58:00;;;;;;;13.48;11.48;;;;;;;23.59;57.99;95148.91;5117181;27;20624;-78
2021/07/24 09:00:27;;;;;;;15.52;12.98;;;;;;;23.50;57.49;95139.75;5117095;27;20171;-79
2021/07/24 09:02:54;;;;;;;13.43;12.00;;;;;;;23.75;57.35;95137.56;5117045;27;20187;-79
2021/07/24 09:05:20;;;;;;;14.50;12.13;;;;;;;24.27;55.57;95140.78;5117085;27;20198;-78
2021/07/24 09:07:47;;;;;;;15.98;12.77;;;;;;;24.34;56.18;95155.78;5116143;27;20183;-77
2021/07/24 09:10:13;;;;;;;15.80;12.52;;;;;;;24.55;54.86;95161.13;5115847;27;20175;-78
2021/07/24 09:12:40;;;;;;;15.00;11.85;;;;;;;24.86;54.58;95157.03;5116140;27;20189;-77
2021/07/24 09:15:07;;;;;;;13.57;11.43;;;;;;;24.75;50.93;95154.50;5136526;27;20194;-79
2021/07/24 09:17:32;;;;;;;12.40;11.20;;;;;;;25.06;51.90;95150.41;5122667;27;20228;-79
2021/07/24 09:19:59;;;;;;;13.23;10.40;;;;;;;25.25;50.64;95156.19;5096613;27;20258;-79
2021/07/24 09:22:38;;;;;;;13.25;10.80;;;;;;;25.69;49.39;95165.72;5119817;27;20178;-79
2021/07/24 09:25:14;;;;;;;12.20;11.00;;;;;;;25.85;49.72;95163.22;5138245;27;20203;-79
2021/07/24 09:27:42;;;;;;;11.50;10.30;;;;;;;25.85;48.75;95161.38;5107560;27;20171;-79
2021/07/24 09:30:10;;;;;;;13.73;10.52;;;;;;;25.64;47.93;95172.84;5115300;27;20175;-78
2021/07/24 09:32:36;;;;;;;11.50;10.27;;;;;;;25.78;47.72;95173.25;5096127;27;20171;-79
2021/07/24 09:35:01;;;;;;;11.82;9.75;;;;;;;25.38;48.51;95171.78;5115697;27;20203;-78
2021/07/24 09:37:28;;;;;;;11.30;9.52;;;;;;;25.45;48.82;95177.72;5111103;27;20206;-80
2021/07/24 09:39:55;;;;;;;12.43;10.40;;;;;;;25.33;48.82;95187.66;5115277;27;20171;-78
2021/07/24 09:42:20;;;;;;;12.60;10.63;;;;;;;25.94;49.19;95175.00;5098109;27;20175;-79
2021/07/24 09:44:46;;;;;;;11.15;9.45;;;;;;;25.62;49.37;95173.09;5096924;27;20198;-78
2021/07/24 09:47:26;;;;;;;15.20;9.65;;;;;;;26.01;47.05;95172.16;5111423;27;20425;-80
2021/07/24 09:49:51;;;;;;;11.13;9.10;;;;;;;25.78;48.01;95176.72;5111443;27;20182;-79
2021/07/24 09:52:17;;;;;;;10.88;9.05;;;;;;;25.53;47.46;95179.09;5097721;27;21234;-79
2021/07/24 09:54:42;;;;;;;9.85;8.65;;;;;;;25.79;46.86;95182.84;5113352;27;20692;-79
2021/07/24 09:57:07;;;;;;;10.75;9.45;;;;;;;25.73;47.14;95176.69;5112771;27;20214;-79
2021/07/24 09:59:34;;;;;;;12.00;9.70;;;;;;;25.64;47.27;95175.50;5116590;27;20202;-79
2021/07/24 10:02:08;;;;;;;12.18;9.35;;;;;;;25.54;47.54;95181.53;5115018;27;20551;-79
2021/07/24 10:04:37;;;;;;;12.65;9.05;;;;;;;25.75;47.10;95169.25;5099001;27;20214;-80
2021/07/24 10:07:04;;;;;;;12.23;9.40;;;;;;;25.53;47.97;95173.78;5116353;27;20163;-79
2021/07/24 10:09:35;;;;;;;14.00;9.85;;;;;;;25.83;46.42;95163.50;5116915;27;20661;-80
2021/07/24 10:12:01;;;;;;;10.80;8.02;;;;;;;26.09;45.46;95171.69;5134451;27;20775;-80
2021/07/24 10:14:27;;;;;;;14.82;9.32;;;;;;;26.07;45.97;95158.66;5134330;27;20195;-79
2021/07/24 10:16:55;;;;;;;10.13;9.02;;;;;;;26.21;46.45;95151.03;5116228;27;20209;-78
2021/07/24 10:19:21;;;;;;;15.63;9.25;;;;;;;26.34;45.96;95160.44;5115823;27;20182;-79
2021/07/24 10:21:48;;;;;;;13.48;8.60;;;;;;;26.62;44.49;95143.34;5124243;27;20743;-79
2021/07/24 10:24:14;;;;;;;9.82;8.57;;;;;;;26.79;43.65;95144.78;5115638;27;20267;-79
2021/07/24 10:26:43;;;;;;;10.45;8.93;;;;;;;26.98;44.49;95145.13;5116257;27;20167;-79
2021/07/24 10:29:10;;;;;;;10.77;9.40;;;;;;;26.85;44.58;95145.59;5113985;27;20172;-79
2021/07/24 10:31:48;;;;;;;9.38;7.85;;;;;;;27.23;41.97;95147.13;5127212;27;20729;-79
2021/07/24 10:34:14;;;;;;;11.15;9.50;;;;;;;26.75;44.26;95137.53;5119275;27;20200;-80
2021/07/24 10:36:40;;;;;;;10.35;9.23;;;;;;;26.40;43.45;95143.47;5136199;27;20273;-79
2021/07/24 10:39:08;;;;;;;10.90;8.57;;;;;;;26.79;42.43;95142.13;5136631;27;20174;-80
2021/07/24 10:41:35;;;;;;;10.25;8.27;;;;;;;26.31;44.25;95136.97;5103681;27;20239;-79
2021/07/24 10:44:06;;;;;;;11.93;9.50;;;;;;;26.72;43.28;95140.75;5117883;27;20562;-80
2021/07/24 10:46:40;;;;;;;10.35;8.25;;;;;;;27.01;43.06;95141.13;5134011;27;20171;-79
2021/07/24 10:49:34;;;;;;;8.88;7.97;;;;;;;26.82;44.26;95136.25;5114792;28;20201;-78
2021/07/24 10:52:01;;;;;;;10.07;8.20;;;;;;;27.31;41.41;95130.63;5133765;27;20266;-79
2021/07/24 10:54:28;;;;;;;12.50;8.55;;;;;;;27.71;41.90;95129.13;5133030;27;20225;-79
2021/07/24 10:56:54;;;;;;;10.52;8.35;;;;;;;27.69;41.12;95133.13;5114835;27;20203;-79
2021/07/24 10:59:20;;;;;;;12.18;8.25;;;;;;;27.86;41.26;95126.47;5115148;28;20194;-76
2021/07/24 11:01:49;;;;;;;8.73;7.85;;;;;;;27.76;40.01;95136.34;5117733;27;20179;-77
2021/07/24 11:04:37;;;;;;;9.50;7.68;;;;;;;27.76;39.99;95133.69;5132760;27;20696;-77
2021/07/24 11:07:21;;;;;;;11.68;8.00;;;;;;;27.56;41.59;95126.38;5134974;27;20605;-77
2021/07/24 11:10:06;;;;;;;11.05;8.55;;;;;;;27.45;41.84;95127.44;5153531;27;20175;-78
2021/07/24 11:12:37;;;;;;;10.20;7.78;;;;;;;26.72;41.89;95127.41;5123913;27;20831;-78
2021/07/24 11:15:12;;;;;;;10.00;8.05;;;;;;;26.21;43.72;95130.53;5126688;27;20213;-78
2021/07/24 11:17:38;;;;;;;9.70;8.70;;;;;;;26.23;43.56;95119.63;5118660;27;20701;-79
2021/07/24 11:20:04;;;;;;;10.27;7.95;;;;;;;26.30;43.14;95124.75;5101711;27;20186;-78